Pagina principale
METAR-TAF:

METAR-TAF

Aeroporti :

Aeroporto Internazionale del Kuwait

Madinat al-Kuwait, Kuwait

latitudine: 29-13N, longitudine: 047-59E, altezza: 55 m

Osservazione

Il bollettino è stato emesso 1 ora e 3 minuti fa, alle 02:00 UTC
Vento 4 kt da sud
Temperature 16°C
Umidità 45%
Pressione 1013 hPa
Visibilità 10 km o più
nessuna nube inferiore a 1500 m e nessun cumulonembo

METAR: OKBK 250200Z 17004KT CAVOK 16/04 Q1013 NOSIG

Ora: 06:03 (03:03 UTC)

Previsione

Il bollettino è stato emesso 4 ore e 18 minuti fa, alle 22:45 UTC
Previsione valida dal 25 alle 00 UTC al 26 alle 06 UTC
Vento 3 kt da direzioni variabili
Visibilità: 6000 m
Temporaneamente
dal 24 alle 18 UTC al 25 alle 03 UTC
Vento 10 kt da sud
Temporaneamente
dal 25 alle 00 UTC al 25 alle 05 UTC
Visibilità: 3000 m
foschia, foschia

TAF: OKBK 242245Z 2500/2606 VRB03KT 6000 NSC TEMPO 2418/2503 18010KT TEMPO 2500/2505 3000 BR HZ

Osservazioni e previsioni meteorologiche di più di 4000 aeroporti (messaggi METAR e TAF).

Le stazioni disponibili sono rappresentate dai dischi gialli e rossi sulla carta.

Puntare il mouse per vedere il nome della stazione.

Clicca sopra per visualizzare le osservazioni e previsioni meteorologiche.

Per cambiare la mappa : fare clic sui pulsanti verdi con una croce nera per ingrandire, il pulsante verde con un trattino per diminuire, o sulla freccia verde per le mappe adiacenti.


METAR-TAF: